Cuba, Illinois
Current Conditions -  °F | °C
As of 7:35 PM on Tuesday 21 Oct 2014 (Local Time) from KMQB Reporting Station
Clear Clear  
Wind Chill: 45°   Ceiling: Unl
Heat Index: 47°   Visibility: 10mi
Dew Point: 38°   Wind: 5mph
Humidity: 70%   Direction: 70°ENE
Pressure: 30.21"   Gusts: NA
Location:  40.49°N, 90.19°W
Report Text: KMQB 220035Z AUTO 07004KT 10SM CLR 08/03 A3021 RMK AO2 T00840033
Loading
Personal Weather Stations






























Interactive Weather Map
Tropical Storm Tracking
New forecast layout! Learn more

10-Day Weather Forecast

Advertisements
Track Severe Weather on mobile